Terminal Aerodrome Forecast
Issued by NWS

Current Version | Previous Version | Graphics & Text | Print | Product List | Glossary On
Versions: 1 2 3 4 5 6 7 8 9 10 11 12 13 14 15 16 17 18 19 20 21 22 23 24 25 26 27 28 29 30 31 32
000
FTUS41 KRNK 230532
TAFLWB
TAF
KLWB 230532Z 2306/2406 VRB03KT 6SM -SHRA OVC040
     FM230700 20004KT P6SM OVC015
      TEMPO 2307/2309 4SM -SHRA OVC007
     FM230900 20004KT P6SM OVC015
     FM231400 24012KT P6SM BKN040
     FM240000 24010KT 4SM -SHRA BKN050=

USA.gov is the U.S. government's official web portal to all federal, state and local government web resources and services.